sensor_id;sensor_type;location;lat;lon;timestamp;P1;durP1;ratioP1;P2;durP2;ratioP2
68247;SDS011;55064;49.636;12.164;2023-10-31T00:01:53;10.90;;;5.63;;
68247;SDS011;55064;49.636;12.164;2023-10-31T00:04:20;11.00;;;5.93;;
68247;SDS011;55064;49.636;12.164;2023-10-31T00:06:45;12.30;;;6.00;;
68247;SDS011;55064;49.636;12.164;2023-10-31T00:09:11;12.03;;;5.97;;
68247;SDS011;55064;49.636;12.164;2023-10-31T00:11:37;11.45;;;5.60;;
68247;SDS011;55064;49.636;12.164;2023-10-31T00:14:02;15.13;;;5.83;;
68247;SDS011;55064;49.636;12.164;2023-10-31T00:16:28;10.55;;;5.38;;
68247;SDS011;55064;49.636;12.164;2023-10-31T00:18:53;10.57;;;5.83;;
68247;SDS011;55064;49.636;12.164;2023-10-31T00:21:19;12.17;;;5.80;;
68247;SDS011;55064;49.636;12.164;2023-10-31T00:23:45;11.43;;;5.38;;
68247;SDS011;55064;49.636;12.164;2023-10-31T00:26:11;11.15;;;5.40;;
68247;SDS011;55064;49.636;12.164;2023-10-31T00:28:38;9.00;;;4.80;;
68247;SDS011;55064;49.636;12.164;2023-10-31T00:31:03;10.10;;;5.38;;
68247;SDS011;55064;49.636;12.164;2023-10-31T00:33:30;12.63;;;5.60;;
68247;SDS011;55064;49.636;12.164;2023-10-31T00:35:55;12.20;;;5.83;;
68247;SDS011;55064;49.636;12.164;2023-10-31T00:38:21;10.07;;;5.20;;
68247;SDS011;55064;49.636;12.164;2023-10-31T00:40:46;10.27;;;5.07;;
68247;SDS011;55064;49.636;12.164;2023-10-31T00:43:11;10.85;;;5.30;;
68247;SDS011;55064;49.636;12.164;2023-10-31T00:45:37;10.50;;;5.20;;
68247;SDS011;55064;49.636;12.164;2023-10-31T00:48:02;11.40;;;5.50;;
68247;SDS011;55064;49.636;12.164;2023-10-31T00:50:29;10.27;;;5.10;;
68247;SDS011;55064;49.636;12.164;2023-10-31T00:52:54;9.43;;;4.80;;
68247;SDS011;55064;49.636;12.164;2023-10-31T00:55:19;9.40;;;4.93;;
68247;SDS011;55064;49.636;12.164;2023-10-31T00:57:45;11.07;;;5.60;;
68247;SDS011;55064;49.636;12.164;2023-10-31T01:00:10;10.63;;;5.13;;
68247;SDS011;55064;49.636;12.164;2023-10-31T01:02:36;10.15;;;5.53;;
68247;SDS011;55064;49.636;12.164;2023-10-31T01:05:02;11.87;;;5.40;;
68247;SDS011;55064;49.636;12.164;2023-10-31T01:07:27;11.10;;;5.63;;
68247;SDS011;55064;49.636;12.164;2023-10-31T01:09:52;11.03;;;5.60;;
68247;SDS011;55064;49.636;12.164;2023-10-31T01:12:19;11.23;;;5.83;;
68247;SDS011;55064;49.636;12.164;2023-10-31T01:14:44;12.25;;;6.20;;
68247;SDS011;55064;49.636;12.164;2023-10-31T01:17:11;10.33;;;5.60;;
68247;SDS011;55064;49.636;12.164;2023-10-31T01:19:36;11.05;;;5.30;;
68247;SDS011;55064;49.636;12.164;2023-10-31T01:22:01;11.27;;;5.17;;
68247;SDS011;55064;49.636;12.164;2023-10-31T01:24:27;12.20;;;6.13;;
68247;SDS011;55064;49.636;12.164;2023-10-31T01:26:52;11.40;;;5.80;;
68247;SDS011;55064;49.636;12.164;2023-10-31T01:29:18;10.63;;;5.50;;
68247;SDS011;55064;49.636;12.164;2023-10-31T01:31:43;10.80;;;5.57;;
68247;SDS011;55064;49.636;12.164;2023-10-31T01:36:44;11.43;;;5.78;;
68247;SDS011;55064;49.636;12.164;2023-10-31T01:39:10;12.07;;;5.95;;
68247;SDS011;55064;49.636;12.164;2023-10-31T01:41:35;11.97;;;6.10;;
68247;SDS011;55064;49.636;12.164;2023-10-31T01:44:02;11.00;;;5.40;;
68247;SDS011;55064;49.636;12.164;2023-10-31T01:46:28;12.23;;;5.97;;
68247;SDS011;55064;49.636;12.164;2023-10-31T01:48:53;9.27;;;4.67;;
68247;SDS011;55064;49.636;12.164;2023-10-31T01:51:25;10.00;;;5.00;;
68247;SDS011;55064;49.636;12.164;2023-10-31T01:53:51;9.02;;;4.13;;
68247;SDS011;55064;49.636;12.164;2023-10-31T01:56:23;7.30;;;2.80;;
68247;SDS011;55064;49.636;12.164;2023-10-31T01:58:52;5.60;;;2.20;;
68247;SDS011;55064;49.636;12.164;2023-10-31T02:01:18;5.35;;;2.13;;
68247;SDS011;55064;49.636;12.164;2023-10-31T02:03:44;6.03;;;2.40;;
68247;SDS011;55064;49.636;12.164;2023-10-31T02:06:12;6.13;;;2.07;;
68247;SDS011;55064;49.636;12.164;2023-10-31T02:08:38;6.35;;;1.67;;
68247;SDS011;55064;49.636;12.164;2023-10-31T02:11:06;3.78;;;1.30;;
68247;SDS011;55064;49.636;12.164;2023-10-31T02:13:35;4.73;;;1.37;;
68247;SDS011;55064;49.636;12.164;2023-10-31T02:16:01;4.47;;;1.33;;
68247;SDS011;55064;49.636;12.164;2023-10-31T02:18:27;4.50;;;1.55;;
68247;SDS011;55064;49.636;12.164;2023-10-31T02:20:54;5.47;;;1.70;;
68247;SDS011;55064;49.636;12.164;2023-10-31T02:23:20;5.18;;;1.70;;
68247;SDS011;55064;49.636;12.164;2023-10-31T02:25:45;4.10;;;1.23;;
68247;SDS011;55064;49.636;12.164;2023-10-31T02:28:11;3.97;;;1.23;;
68247;SDS011;55064;49.636;12.164;2023-10-31T02:30:37;3.67;;;0.93;;
68247;SDS011;55064;49.636;12.164;2023-10-31T02:33:08;3.97;;;1.20;;
68247;SDS011;55064;49.636;12.164;2023-10-31T02:35:36;3.97;;;1.03;;
68247;SDS011;55064;49.636;12.164;2023-10-31T02:38:01;3.90;;;1.10;;
68247;SDS011;55064;49.636;12.164;2023-10-31T02:40:27;4.10;;;1.15;;
68247;SDS011;55064;49.636;12.164;2023-10-31T02:42:52;2.87;;;0.90;;
68247;SDS011;55064;49.636;12.164;2023-10-31T02:45:18;3.73;;;0.80;;
68247;SDS011;55064;49.636;12.164;2023-10-31T02:47:43;3.83;;;0.90;;
68247;SDS011;55064;49.636;12.164;2023-10-31T02:50:09;3.03;;;0.97;;
68247;SDS011;55064;49.636;12.164;2023-10-31T02:52:34;3.23;;;1.00;;
68247;SDS011;55064;49.636;12.164;2023-10-31T02:55:00;3.57;;;1.20;;
68247;SDS011;55064;49.636;12.164;2023-10-31T02:57:25;4.30;;;1.30;;
68247;SDS011;55064;49.636;12.164;2023-10-31T02:59:50;4.63;;;1.17;;
68247;SDS011;55064;49.636;12.164;2023-10-31T03:02:16;3.53;;;1.00;;
68247;SDS011;55064;49.636;12.164;2023-10-31T03:04:42;3.83;;;1.00;;
68247;SDS011;55064;49.636;12.164;2023-10-31T03:07:08;4.38;;;0.98;;
68247;SDS011;55064;49.636;12.164;2023-10-31T03:09:33;3.57;;;1.17;;
68247;SDS011;55064;49.636;12.164;2023-10-31T03:12:00;2.88;;;0.70;;
68247;SDS011;55064;49.636;12.164;2023-10-31T03:14:25;2.77;;;0.70;;
68247;SDS011;55064;49.636;12.164;2023-10-31T03:16:50;2.37;;;0.70;;
68247;SDS011;55064;49.636;12.164;2023-10-31T03:19:16;3.25;;;0.57;;
68247;SDS011;55064;49.636;12.164;2023-10-31T03:21:44;3.42;;;0.80;;
68247;SDS011;55064;49.636;12.164;2023-10-31T03:24:12;1.90;;;0.50;;
68247;SDS011;55064;49.636;12.164;2023-10-31T03:26:37;2.50;;;0.60;;
68247;SDS011;55064;49.636;12.164;2023-10-31T03:29:03;2.07;;;0.50;;
68247;SDS011;55064;49.636;12.164;2023-10-31T03:31:28;1.90;;;0.50;;
68247;SDS011;55064;49.636;12.164;2023-10-31T03:33:54;2.53;;;0.57;;
68247;SDS011;55064;49.636;12.164;2023-10-31T03:36:20;2.55;;;0.60;;
68247;SDS011;55064;49.636;12.164;2023-10-31T03:38:46;2.07;;;0.47;;
68247;SDS011;55064;49.636;12.164;2023-10-31T03:41:11;2.60;;;0.52;;
68247;SDS011;55064;49.636;12.164;2023-10-31T03:43:38;3.13;;;0.68;;
68247;SDS011;55064;49.636;12.164;2023-10-31T03:46:04;1.93;;;0.57;;
68247;SDS011;55064;49.636;12.164;2023-10-31T03:48:32;1.52;;;0.50;;
68247;SDS011;55064;49.636;12.164;2023-10-31T03:50:57;2.53;;;0.60;;
68247;SDS011;55064;49.636;12.164;2023-10-31T03:53:23;3.03;;;0.60;;
68247;SDS011;55064;49.636;12.164;2023-10-31T03:55:48;3.10;;;0.63;;
68247;SDS011;55064;49.636;12.164;2023-10-31T03:58:14;4.33;;;0.60;;
68247;SDS011;55064;49.636;12.164;2023-10-31T04:00:39;1.70;;;0.47;;
68247;SDS011;55064;49.636;12.164;2023-10-31T04:03:06;2.15;;;0.50;;
68247;SDS011;55064;49.636;12.164;2023-10-31T04:05:32;2.03;;;0.50;;
68247;SDS011;55064;49.636;12.164;2023-10-31T04:07:58;2.20;;;0.50;;
68247;SDS011;55064;49.636;12.164;2023-10-31T04:10:25;2.72;;;0.50;;
68247;SDS011;55064;49.636;12.164;2023-10-31T04:12:50;2.88;;;0.55;;
68247;SDS011;55064;49.636;12.164;2023-10-31T04:15:15;1.93;;;0.43;;
68247;SDS011;55064;49.636;12.164;2023-10-31T04:17:41;1.63;;;0.50;;
68247;SDS011;55064;49.636;12.164;2023-10-31T04:20:06;1.73;;;0.40;;
68247;SDS011;55064;49.636;12.164;2023-10-31T04:22:34;2.30;;;0.50;;
68247;SDS011;55064;49.636;12.164;2023-10-31T04:24:59;2.45;;;0.50;;
68247;SDS011;55064;49.636;12.164;2023-10-31T04:27:25;2.13;;;0.53;;
68247;SDS011;55064;49.636;12.164;2023-10-31T04:29:51;2.28;;;0.63;;
68247;SDS011;55064;49.636;12.164;2023-10-31T04:32:16;1.77;;;0.50;;
68247;SDS011;55064;49.636;12.164;2023-10-31T04:34:42;2.43;;;0.50;;
68247;SDS011;55064;49.636;12.164;2023-10-31T04:37:08;2.50;;;0.60;;
68247;SDS011;55064;49.636;12.164;2023-10-31T04:39:35;3.58;;;0.77;;
68247;SDS011;55064;49.636;12.164;2023-10-31T04:42:01;3.77;;;0.90;;
68247;SDS011;55064;49.636;12.164;2023-10-31T04:44:26;2.77;;;0.70;;
68247;SDS011;55064;49.636;12.164;2023-10-31T04:46:52;2.73;;;0.60;;
68247;SDS011;55064;49.636;12.164;2023-10-31T04:49:17;2.37;;;0.70;;
68247;SDS011;55064;49.636;12.164;2023-10-31T04:51:42;1.83;;;0.40;;
68247;SDS011;55064;49.636;12.164;2023-10-31T04:54:08;1.95;;;0.50;;
68247;SDS011;55064;49.636;12.164;2023-10-31T04:56:34;3.33;;;0.50;;
68247;SDS011;55064;49.636;12.164;2023-10-31T04:59:00;2.60;;;0.70;;
68247;SDS011;55064;49.636;12.164;2023-10-31T05:01:26;2.30;;;0.60;;
68247;SDS011;55064;49.636;12.164;2023-10-31T05:03:51;3.90;;;0.70;;
68247;SDS011;55064;49.636;12.164;2023-10-31T05:06:21;3.30;;;0.80;;
68247;SDS011;55064;49.636;12.164;2023-10-31T05:08:48;2.20;;;0.50;;
68247;SDS011;55064;49.636;12.164;2023-10-31T05:11:17;3.35;;;0.80;;
68247;SDS011;55064;49.636;12.164;2023-10-31T05:13:44;2.60;;;0.70;;
68247;SDS011;55064;49.636;12.164;2023-10-31T05:16:11;3.92;;;0.70;;
68247;SDS011;55064;49.636;12.164;2023-10-31T05:18:39;2.77;;;0.60;;
68247;SDS011;55064;49.636;12.164;2023-10-31T05:21:05;2.47;;;0.50;;
68247;SDS011;55064;49.636;12.164;2023-10-31T05:23:30;2.17;;;0.50;;
68247;SDS011;55064;49.636;12.164;2023-10-31T05:25:58;3.50;;;0.95;;
68247;SDS011;55064;49.636;12.164;2023-10-31T05:28:23;2.40;;;0.57;;
68247;SDS011;55064;49.636;12.164;2023-10-31T05:30:49;3.17;;;0.80;;
68247;SDS011;55064;49.636;12.164;2023-10-31T05:33:15;4.40;;;0.98;;
68247;SDS011;55064;49.636;12.164;2023-10-31T05:35:41;5.05;;;0.75;;
68247;SDS011;55064;49.636;12.164;2023-10-31T05:38:09;4.57;;;1.03;;
68247;SDS011;55064;49.636;12.164;2023-10-31T05:40:34;3.13;;;1.00;;
68247;SDS011;55064;49.636;12.164;2023-10-31T05:43:02;2.30;;;0.68;;
68247;SDS011;55064;49.636;12.164;2023-10-31T05:45:28;3.60;;;0.63;;
68247;SDS011;55064;49.636;12.164;2023-10-31T05:47:54;3.67;;;0.80;;
68247;SDS011;55064;49.636;12.164;2023-10-31T05:50:20;2.43;;;0.60;;
68247;SDS011;55064;49.636;12.164;2023-10-31T05:52:46;2.42;;;0.60;;
68247;SDS011;55064;49.636;12.164;2023-10-31T05:55:11;1.90;;;0.50;;
68247;SDS011;55064;49.636;12.164;2023-10-31T05:57:37;2.17;;;0.40;;
68247;SDS011;55064;49.636;12.164;2023-10-31T06:00:03;3.10;;;0.50;;
68247;SDS011;55064;49.636;12.164;2023-10-31T06:02:29;2.42;;;0.60;;
68247;SDS011;55064;49.636;12.164;2023-10-31T06:04:56;2.50;;;0.70;;
68247;SDS011;55064;49.636;12.164;2023-10-31T06:10:23;5.05;;;0.70;;
68247;SDS011;55064;49.636;12.164;2023-10-31T06:12:49;2.53;;;0.70;;
68247;SDS011;55064;49.636;12.164;2023-10-31T06:15:14;2.60;;;0.60;;
68247;SDS011;55064;49.636;12.164;2023-10-31T06:17:53;3.87;;;0.70;;
68247;SDS011;55064;49.636;12.164;2023-10-31T06:20:20;2.42;;;0.60;;
68247;SDS011;55064;49.636;12.164;2023-10-31T06:22:46;2.30;;;0.60;;
68247;SDS011;55064;49.636;12.164;2023-10-31T06:25:14;3.05;;;0.80;;
68247;SDS011;55064;49.636;12.164;2023-10-31T06:27:47;3.22;;;0.70;;
68247;SDS011;55064;49.636;12.164;2023-10-31T06:36:40;4.13;;;0.90;;
68247;SDS011;55064;49.636;12.164;2023-10-31T06:42:41;3.80;;;0.70;;
68247;SDS011;55064;49.636;12.164;2023-10-31T06:51:12;2.25;;;0.77;;
68247;SDS011;55064;49.636;12.164;2023-10-31T06:56:52;2.72;;;0.63;;
68247;SDS011;55064;49.636;12.164;2023-10-31T06:59:17;3.00;;;0.80;;
68247;SDS011;55064;49.636;12.164;2023-10-31T07:01:45;2.53;;;0.70;;
68247;SDS011;55064;49.636;12.164;2023-10-31T07:04:11;2.70;;;0.60;;
68247;SDS011;55064;49.636;12.164;2023-10-31T07:06:37;3.30;;;0.70;;
68247;SDS011;55064;49.636;12.164;2023-10-31T07:09:02;3.37;;;0.90;;
68247;SDS011;55064;49.636;12.164;2023-10-31T07:11:30;3.67;;;1.00;;
68247;SDS011;55064;49.636;12.164;2023-10-31T07:13:58;4.97;;;0.88;;
68247;SDS011;55064;49.636;12.164;2023-10-31T07:16:25;2.83;;;0.77;;
68247;SDS011;55064;49.636;12.164;2023-10-31T07:18:53;4.23;;;0.97;;
68247;SDS011;55064;49.636;12.164;2023-10-31T07:21:19;2.92;;;0.90;;
68247;SDS011;55064;49.636;12.164;2023-10-31T07:23:44;3.90;;;0.73;;
68247;SDS011;55064;49.636;12.164;2023-10-31T07:26:09;3.40;;;0.90;;
68247;SDS011;55064;49.636;12.164;2023-10-31T07:28:35;2.97;;;0.90;;
68247;SDS011;55064;49.636;12.164;2023-10-31T07:31:03;4.73;;;1.00;;
68247;SDS011;55064;49.636;12.164;2023-10-31T07:33:31;5.13;;;1.00;;
68247;SDS011;55064;49.636;12.164;2023-10-31T07:35:57;3.55;;;0.95;;
68247;SDS011;55064;49.636;12.164;2023-10-31T07:38:22;3.90;;;1.00;;
68247;SDS011;55064;49.636;12.164;2023-10-31T07:40:52;3.40;;;1.00;;
68247;SDS011;55064;49.636;12.164;2023-10-31T07:43:17;3.75;;;1.05;;
68247;SDS011;55064;49.636;12.164;2023-10-31T07:45:43;2.60;;;0.80;;
68247;SDS011;55064;49.636;12.164;2023-10-31T07:48:10;3.40;;;0.88;;
68247;SDS011;55064;49.636;12.164;2023-10-31T07:50:36;3.70;;;1.10;;
68247;SDS011;55064;49.636;12.164;2023-10-31T07:53:01;3.53;;;1.00;;
68247;SDS011;55064;49.636;12.164;2023-10-31T07:55:29;6.15;;;1.15;;
68247;SDS011;55064;49.636;12.164;2023-10-31T08:10:54;3.77;;;0.97;;
68247;SDS011;55064;49.636;12.164;2023-10-31T08:13:19;3.72;;;0.90;;
68247;SDS011;55064;49.636;12.164;2023-10-31T08:15:45;2.50;;;0.70;;
68247;SDS011;55064;49.636;12.164;2023-10-31T08:18:11;2.53;;;0.70;;
68247;SDS011;55064;49.636;12.164;2023-10-31T08:20:36;3.88;;;0.80;;
68247;SDS011;55064;49.636;12.164;2023-10-31T08:23:03;3.73;;;0.97;;
68247;SDS011;55064;49.636;12.164;2023-10-31T08:25:29;5.18;;;1.08;;
68247;SDS011;55064;49.636;12.164;2023-10-31T08:27:54;3.65;;;0.90;;
68247;SDS011;55064;49.636;12.164;2023-10-31T08:30:22;3.67;;;0.70;;
68247;SDS011;55064;49.636;12.164;2023-10-31T08:32:47;3.97;;;0.75;;
68247;SDS011;55064;49.636;12.164;2023-10-31T08:35:14;4.03;;;0.70;;
68247;SDS011;55064;49.636;12.164;2023-10-31T08:37:39;3.53;;;0.80;;
68247;SDS011;55064;49.636;12.164;2023-10-31T08:40:05;5.33;;;0.80;;
68247;SDS011;55064;49.636;12.164;2023-10-31T08:42:32;3.13;;;0.75;;
68247;SDS011;55064;49.636;12.164;2023-10-31T08:44:57;4.67;;;0.80;;
68247;SDS011;55064;49.636;12.164;2023-10-31T08:47:22;2.97;;;0.80;;
68247;SDS011;55064;49.636;12.164;2023-10-31T08:49:49;2.97;;;0.77;;
68247;SDS011;55064;49.636;12.164;2023-10-31T08:52:14;2.75;;;0.70;;
68247;SDS011;55064;49.636;12.164;2023-10-31T08:54:40;2.30;;;0.60;;
68247;SDS011;55064;49.636;12.164;2023-10-31T08:57:05;4.40;;;0.67;;
68247;SDS011;55064;49.636;12.164;2023-10-31T08:59:30;2.63;;;0.63;;
68247;SDS011;55064;49.636;12.164;2023-10-31T09:01:58;2.87;;;0.70;;
68247;SDS011;55064;49.636;12.164;2023-10-31T09:04:24;3.25;;;0.73;;
68247;SDS011;55064;49.636;12.164;2023-10-31T09:06:50;3.25;;;0.63;;
68247;SDS011;55064;49.636;12.164;2023-10-31T09:09:23;2.53;;;0.73;;
68247;SDS011;55064;49.636;12.164;2023-10-31T09:12:02;5.18;;;0.80;;
68247;SDS011;55064;49.636;12.164;2023-10-31T09:14:42;4.65;;;1.13;;
68247;SDS011;55064;49.636;12.164;2023-10-31T09:26:41;4.70;;;1.05;;
68247;SDS011;55064;49.636;12.164;2023-10-31T09:32:48;2.70;;;0.70;;
68247;SDS011;55064;49.636;12.164;2023-10-31T09:41:23;3.60;;;0.60;;
68247;SDS011;55064;49.636;12.164;2023-10-31T09:56:05;3.90;;;0.70;;
68247;SDS011;55064;49.636;12.164;2023-10-31T10:07:35;4.27;;;0.80;;
68247;SDS011;55064;49.636;12.164;2023-10-31T10:13:22;4.40;;;1.40;;
68247;SDS011;55064;49.636;12.164;2023-10-31T10:15:48;4.63;;;1.30;;
68247;SDS011;55064;49.636;12.164;2023-10-31T10:38:23;3.17;;;0.70;;
68247;SDS011;55064;49.636;12.164;2023-10-31T10:40:53;3.30;;;0.88;;
68247;SDS011;55064;49.636;12.164;2023-10-31T10:46:14;5.65;;;1.20;;
68247;SDS011;55064;49.636;12.164;2023-10-31T11:00:41;3.22;;;0.70;;
68247;SDS011;55064;49.636;12.164;2023-10-31T11:03:07;4.03;;;0.63;;
68247;SDS011;55064;49.636;12.164;2023-10-31T11:05:33;3.03;;;0.80;;
68247;SDS011;55064;49.636;12.164;2023-10-31T11:07:59;2.95;;;0.70;;
68247;SDS011;55064;49.636;12.164;2023-10-31T11:10:26;4.05;;;0.90;;
68247;SDS011;55064;49.636;12.164;2023-10-31T11:12:52;2.95;;;0.80;;
68247;SDS011;55064;49.636;12.164;2023-10-31T11:15:18;2.17;;;0.50;;
68247;SDS011;55064;49.636;12.164;2023-10-31T11:17:45;2.42;;;0.60;;
68247;SDS011;55064;49.636;12.164;2023-10-31T11:20:12;2.80;;;0.80;;
68247;SDS011;55064;49.636;12.164;2023-10-31T11:22:43;3.58;;;0.70;;
68247;SDS011;55064;49.636;12.164;2023-10-31T11:25:20;2.58;;;0.70;;
68247;SDS011;55064;49.636;12.164;2023-10-31T11:27:49;2.47;;;0.63;;
68247;SDS011;55064;49.636;12.164;2023-10-31T11:32:57;3.55;;;0.60;;
68247;SDS011;55064;49.636;12.164;2023-10-31T11:35:25;4.28;;;0.73;;
68247;SDS011;55064;49.636;12.164;2023-10-31T11:38:02;4.10;;;0.77;;
68247;SDS011;55064;49.636;12.164;2023-10-31T11:40:37;2.77;;;0.70;;
68247;SDS011;55064;49.636;12.164;2023-10-31T11:43:23;3.22;;;0.63;;
68247;SDS011;55064;49.636;12.164;2023-10-31T11:45:48;3.57;;;0.90;;
68247;SDS011;55064;49.636;12.164;2023-10-31T11:48:14;3.08;;;0.80;;
68247;SDS011;55064;49.636;12.164;2023-10-31T11:50:42;3.07;;;0.70;;
68247;SDS011;55064;49.636;12.164;2023-10-31T11:53:12;2.45;;;0.80;;
68247;SDS011;55064;49.636;12.164;2023-10-31T11:55:39;4.32;;;0.77;;
68247;SDS011;55064;49.636;12.164;2023-10-31T12:01:00;2.78;;;0.68;;
68247;SDS011;55064;49.636;12.164;2023-10-31T12:03:27;3.93;;;0.63;;
68247;SDS011;55064;49.636;12.164;2023-10-31T12:05:58;3.25;;;0.70;;
68247;SDS011;55064;49.636;12.164;2023-10-31T12:08:36;2.40;;;0.60;;
68247;SDS011;55064;49.636;12.164;2023-10-31T12:11:06;3.13;;;0.82;;
68247;SDS011;55064;49.636;12.164;2023-10-31T12:13:42;4.88;;;0.80;;
68247;SDS011;55064;49.636;12.164;2023-10-31T12:16:17;3.63;;;1.00;;
68247;SDS011;55064;49.636;12.164;2023-10-31T12:18:44;4.05;;;1.00;;
68247;SDS011;55064;49.636;12.164;2023-10-31T12:21:12;3.73;;;1.10;;
68247;SDS011;55064;49.636;12.164;2023-10-31T12:23:40;4.47;;;1.20;;
68247;SDS011;55064;49.636;12.164;2023-10-31T12:26:06;3.67;;;0.98;;
68247;SDS011;55064;49.636;12.164;2023-10-31T12:37:46;4.82;;;1.20;;
68247;SDS011;55064;49.636;12.164;2023-10-31T12:40:20;3.72;;;1.00;;
68247;SDS011;55064;49.636;12.164;2023-10-31T12:49:16;6.82;;;1.60;;
68247;SDS011;55064;49.636;12.164;2023-10-31T12:54:59;4.53;;;1.30;;
68247;SDS011;55064;49.636;12.164;2023-10-31T12:57:37;4.87;;;1.40;;
68247;SDS011;55064;49.636;12.164;2023-10-31T13:09:07;4.35;;;1.30;;
68247;SDS011;55064;49.636;12.164;2023-10-31T13:11:39;4.50;;;1.20;;
68247;SDS011;55064;49.636;12.164;2023-10-31T13:14:04;4.25;;;1.30;;
68247;SDS011;55064;49.636;12.164;2023-10-31T13:16:32;4.83;;;1.50;;
68247;SDS011;55064;49.636;12.164;2023-10-31T13:18:58;4.40;;;1.50;;
68247;SDS011;55064;49.636;12.164;2023-10-31T13:21:24;6.20;;;1.83;;
68247;SDS011;55064;49.636;12.164;2023-10-31T13:23:50;5.55;;;1.50;;
68247;SDS011;55064;49.636;12.164;2023-10-31T13:26:17;5.43;;;1.40;;
68247;SDS011;55064;49.636;12.164;2023-10-31T13:28:45;4.67;;;1.20;;
68247;SDS011;55064;49.636;12.164;2023-10-31T13:31:11;4.47;;;1.27;;
68247;SDS011;55064;49.636;12.164;2023-10-31T13:33:37;4.30;;;1.10;;
68247;SDS011;55064;49.636;12.164;2023-10-31T13:36:11;3.97;;;1.40;;
68247;SDS011;55064;49.636;12.164;2023-10-31T13:38:38;3.92;;;1.20;;
68247;SDS011;55064;49.636;12.164;2023-10-31T13:41:09;4.32;;;1.17;;
68247;SDS011;55064;49.636;12.164;2023-10-31T13:43:35;3.67;;;1.00;;
68247;SDS011;55064;49.636;12.164;2023-10-31T13:46:02;4.57;;;1.40;;
68247;SDS011;55064;49.636;12.164;2023-10-31T13:48:27;3.47;;;1.10;;
68247;SDS011;55064;49.636;12.164;2023-10-31T13:50:57;5.28;;;1.00;;
68247;SDS011;55064;49.636;12.164;2023-10-31T13:53:22;3.70;;;1.17;;
68247;SDS011;55064;49.636;12.164;2023-10-31T13:55:48;4.00;;;1.23;;
68247;SDS011;55064;49.636;12.164;2023-10-31T13:58:13;3.70;;;1.20;;
68247;SDS011;55064;49.636;12.164;2023-10-31T14:00:40;4.40;;;1.03;;
68247;SDS011;55064;49.636;12.164;2023-10-31T14:03:05;3.88;;;1.08;;
68247;SDS011;55064;49.636;12.164;2023-10-31T14:05:32;2.78;;;0.90;;
68247;SDS011;55064;49.636;12.164;2023-10-31T14:11:19;4.18;;;1.20;;
68247;SDS011;55064;49.636;12.164;2023-10-31T14:20:34;4.35;;;1.13;;
68247;SDS011;55064;49.636;12.164;2023-10-31T14:23:02;4.77;;;1.30;;
68247;SDS011;55064;49.636;12.164;2023-10-31T14:25:41;5.07;;;1.42;;
68247;SDS011;55064;49.636;12.164;2023-10-31T14:28:07;4.78;;;1.30;;
68247;SDS011;55064;49.636;12.164;2023-10-31T14:30:32;5.07;;;1.40;;
68247;SDS011;55064;49.636;12.164;2023-10-31T14:33:00;7.75;;;1.73;;
68247;SDS011;55064;49.636;12.164;2023-10-31T14:38:42;4.63;;;1.35;;
68247;SDS011;55064;49.636;12.164;2023-10-31T14:41:10;5.45;;;1.30;;
68247;SDS011;55064;49.636;12.164;2023-10-31T14:43:36;6.50;;;1.57;;
68247;SDS011;55064;49.636;12.164;2023-10-31T14:46:03;4.85;;;1.00;;
68247;SDS011;55064;49.636;12.164;2023-10-31T14:48:29;3.38;;;0.82;;
68247;SDS011;55064;49.636;12.164;2023-10-31T14:57:09;3.55;;;1.02;;
68247;SDS011;55064;49.636;12.164;2023-10-31T14:59:35;4.73;;;1.30;;
68247;SDS011;55064;49.636;12.164;2023-10-31T15:04:49;5.53;;;1.07;;
68247;SDS011;55064;49.636;12.164;2023-10-31T15:10:36;4.20;;;1.00;;
68247;SDS011;55064;49.636;12.164;2023-10-31T15:13:02;4.10;;;0.93;;
68247;SDS011;55064;49.636;12.164;2023-10-31T15:15:36;4.10;;;1.00;;
68247;SDS011;55064;49.636;12.164;2023-10-31T15:21:12;5.65;;;0.90;;
68247;SDS011;55064;49.636;12.164;2023-10-31T15:26:59;4.20;;;1.10;;
68247;SDS011;55064;49.636;12.164;2023-10-31T15:29:25;4.30;;;1.20;;
68247;SDS011;55064;49.636;12.164;2023-10-31T15:31:50;5.47;;;1.20;;
68247;SDS011;55064;49.636;12.164;2023-10-31T15:34:21;5.10;;;1.07;;
68247;SDS011;55064;49.636;12.164;2023-10-31T15:40:09;6.03;;;1.50;;
68247;SDS011;55064;49.636;12.164;2023-10-31T15:42:45;4.45;;;1.27;;
68247;SDS011;55064;49.636;12.164;2023-10-31T15:51:19;3.28;;;0.77;;
68247;SDS011;55064;49.636;12.164;2023-10-31T16:00:01;5.65;;;1.00;;
68247;SDS011;55064;49.636;12.164;2023-10-31T16:02:28;5.00;;;1.20;;
68247;SDS011;55064;49.636;12.164;2023-10-31T16:05:00;5.22;;;1.30;;
68247;SDS011;55064;49.636;12.164;2023-10-31T16:13:44;4.32;;;1.30;;
68247;SDS011;55064;49.636;12.164;2023-10-31T16:16:10;5.07;;;1.07;;
68247;SDS011;55064;49.636;12.164;2023-10-31T16:28:14;7.72;;;1.20;;
68247;SDS011;55064;49.636;12.164;2023-10-31T16:40:38;5.45;;;1.25;;
68247;SDS011;55064;49.636;12.164;2023-10-31T16:46:25;4.63;;;1.33;;
68247;SDS011;55064;49.636;12.164;2023-10-31T16:54:56;6.80;;;1.23;;
68247;SDS011;55064;49.636;12.164;2023-10-31T17:00:22;7.20;;;1.17;;
68247;SDS011;55064;49.636;12.164;2023-10-31T17:02:50;5.20;;;1.20;;
68247;SDS011;55064;49.636;12.164;2023-10-31T17:10:57;5.97;;;1.17;;
68247;SDS011;55064;49.636;12.164;2023-10-31T17:16:41;6.07;;;1.10;;
68247;SDS011;55064;49.636;12.164;2023-10-31T17:22:30;5.93;;;1.20;;
68247;SDS011;55064;49.636;12.164;2023-10-31T17:28:22;6.63;;;1.30;;
68247;SDS011;55064;49.636;12.164;2023-10-31T17:34:09;7.53;;;1.60;;
68247;SDS011;55064;49.636;12.164;2023-10-31T17:40:00;5.53;;;1.43;;
68247;SDS011;55064;49.636;12.164;2023-10-31T17:42:42;6.82;;;1.60;;
68247;SDS011;55064;49.636;12.164;2023-10-31T17:45:13;5.88;;;1.90;;
68247;SDS011;55064;49.636;12.164;2023-10-31T17:47:46;7.68;;;2.10;;
68247;SDS011;55064;49.636;12.164;2023-10-31T17:50:12;8.20;;;2.10;;
68247;SDS011;55064;49.636;12.164;2023-10-31T17:52:46;11.03;;;2.60;;
68247;SDS011;55064;49.636;12.164;2023-10-31T17:55:17;9.25;;;2.55;;
68247;SDS011;55064;49.636;12.164;2023-10-31T17:58:02;7.45;;;2.50;;
68247;SDS011;55064;49.636;12.164;2023-10-31T18:00:28;7.55;;;2.30;;
68247;SDS011;55064;49.636;12.164;2023-10-31T18:03:02;7.00;;;2.10;;
68247;SDS011;55064;49.636;12.164;2023-10-31T18:05:40;7.47;;;2.00;;
68247;SDS011;55064;49.636;12.164;2023-10-31T18:08:05;6.95;;;2.10;;
68247;SDS011;55064;49.636;12.164;2023-10-31T18:10:33;7.03;;;1.90;;
68247;SDS011;55064;49.636;12.164;2023-10-31T18:13:01;8.03;;;2.87;;
68247;SDS011;55064;49.636;12.164;2023-10-31T18:15:35;8.73;;;3.25;;
68247;SDS011;55064;49.636;12.164;2023-10-31T18:21:34;9.70;;;3.40;;
68247;SDS011;55064;49.636;12.164;2023-10-31T18:23:59;9.63;;;2.87;;
68247;SDS011;55064;49.636;12.164;2023-10-31T18:29:17;8.43;;;2.17;;
68247;SDS011;55064;49.636;12.164;2023-10-31T18:31:50;6.63;;;2.03;;
68247;SDS011;55064;49.636;12.164;2023-10-31T18:37:01;10.83;;;2.90;;
68247;SDS011;55064;49.636;12.164;2023-10-31T18:39:33;11.35;;;2.67;;
68247;SDS011;55064;49.636;12.164;2023-10-31T18:42:00;5.87;;;2.00;;
68247;SDS011;55064;49.636;12.164;2023-10-31T18:47:36;6.43;;;1.58;;
68247;SDS011;55064;49.636;12.164;2023-10-31T18:50:02;8.10;;;2.03;;
68247;SDS011;55064;49.636;12.164;2023-10-31T18:52:40;7.03;;;1.77;;
68247;SDS011;55064;49.636;12.164;2023-10-31T18:58:40;7.50;;;1.80;;
68247;SDS011;55064;49.636;12.164;2023-10-31T19:01:07;8.30;;;2.00;;
68247;SDS011;55064;49.636;12.164;2023-10-31T19:03:46;7.13;;;1.75;;
68247;SDS011;55064;49.636;12.164;2023-10-31T19:15:47;9.07;;;2.10;;
68247;SDS011;55064;49.636;12.164;2023-10-31T19:18:13;6.55;;;1.90;;